Time;durP1;ratioP1;P1;durP2;ratioP2;P2;SDS_P1;SDS_P2;PMS_P1;PMS_P2;Temp;Humidity;BMP_temperature;BMP_pressure;BME280_temperature;BME280_humidity;BME280_pressure;Samples;Min_cycle;Max_cycle;Signal;HPM_P1;HPM_P2
2022/04/16 00:00:56;;;;;;;6.03;5.63;;;;;;;;;;5046714;28;20036;-45
2022/04/16 00:03:22;;;;;;;8.40;7.80;;;;;;;;;;5047042;28;20051;-46
2022/04/16 00:05:52;;;;;;;6.28;5.85;;;;;;;;;;5048782;28;20553;-45
2022/04/16 00:08:23;;;;;;;7.07;6.50;;;;;;;;;;5038697;28;20461;-45
2022/04/16 00:10:49;;;;;;;5.57;5.10;;;;;;;;;;5044821;28;20029;-45
2022/04/16 00:13:16;;;;;;;5.55;5.15;;;;;;;;;;5035306;28;20363;-46
2022/04/16 00:15:43;;;;;;;6.57;6.07;;;;;;;;;;5048038;28;20025;-47
2022/04/16 00:18:09;;;;;;;5.30;4.90;;;;;;;;;;5048264;28;20041;-45
2022/04/16 00:20:35;;;;;;;6.28;5.78;;;;;;;;;;5043938;28;20086;-45
2022/04/16 00:23:00;;;;;;;6.25;5.75;;;;;;;;;;5045228;28;20032;-45
2022/04/16 00:25:26;;;;;;;5.85;5.45;;;;;;;;;;5048609;28;20116;-45
2022/04/16 00:27:52;;;;;;;5.57;5.18;;;;;;;;;;5047985;28;20021;-47
2022/04/16 00:30:18;;;;;;;5.88;5.47;;;;;;;;;;5047080;28;20614;-47
2022/04/16 00:32:44;;;;;;;5.03;4.63;;;;;;;;;;5039623;28;20554;-45
2022/04/16 00:35:10;;;;;;;6.40;5.90;;;;;;;;;;5047608;28;20077;-47
2022/04/16 00:37:36;;;;;;;6.20;5.70;;;;;;;;;;5048042;28;20036;-45
2022/04/16 00:40:03;;;;;;;5.65;5.25;;;;;;;;;;5046775;28;20496;-47
2022/04/16 00:42:43;;;;;;;6.05;5.65;;;;;;;;;;5046536;28;20059;-45
2022/04/16 00:45:10;;;;;;;5.78;5.28;;;;;;;;;;5047604;28;20017;-45
2022/04/16 00:47:36;;;;;;;6.40;5.90;;;;;;;;;;5047354;28;20036;-46
2022/04/16 00:50:03;;;;;;;5.65;5.25;;;;;;;;;;5045579;28;20527;-50
2022/04/16 00:52:29;;;;;;;5.95;5.45;;;;;;;;;;5041405;28;20036;-47
2022/04/16 00:54:55;;;;;;;6.13;5.63;;;;;;;;;;5043389;28;20021;-46
2022/04/16 00:57:23;;;;;;;5.18;4.78;;;;;;;;;;5044762;28;20401;-46
2022/04/16 00:59:49;;;;;;;6.13;5.63;;;;;;;;;;5046567;28;20087;-48
2022/04/16 01:02:14;;;;;;;5.13;4.72;;;;;;;;;;5040078;28;20025;-46
2022/04/16 01:04:40;;;;;;;5.40;5.00;;;;;;;;;;5046736;28;20033;-49
2022/04/16 01:07:08;;;;;;;5.78;5.28;;;;;;;;;;5047758;28;20064;-49
2022/04/16 01:09:34;;;;;;;5.70;5.30;;;;;;;;;;5046007;28;20037;-46
2022/04/16 01:12:00;;;;;;;5.70;5.30;;;;;;;;;;5046429;28;20435;-46
2022/04/16 01:14:25;;;;;;;5.22;4.82;;;;;;;;;;5046294;28;20048;-45
2022/04/16 01:16:55;;;;;;;5.72;5.32;;;;;;;;;;5047531;28;20932;-44
2022/04/16 01:19:21;;;;;;;5.53;5.13;;;;;;;;;;5045772;28;20048;-44
2022/04/16 01:21:47;;;;;;;5.38;4.97;;;;;;;;;;5047241;28;20021;-45
2022/04/16 01:24:14;;;;;;;5.82;5.32;;;;;;;;;;5047870;28;20029;-45
2022/04/16 01:26:41;;;;;;;4.75;4.35;;;;;;;;;;5047839;28;20033;-45
2022/04/16 01:29:07;;;;;;;5.82;5.32;;;;;;;;;;5046043;28;20060;-48
2022/04/16 01:31:33;;;;;;;5.85;5.45;;;;;;;;;;5044750;28;20344;-46
2022/04/16 01:33:58;;;;;;;6.10;5.63;;;;;;;;;;5046544;28;20029;-45
2022/04/16 01:36:25;;;;;;;5.32;4.90;;;;;;;;;;5047487;28;20047;-45
2022/04/16 01:38:51;;;;;;;6.22;5.63;;;;;;;;;;5039720;28;20029;-45
2022/04/16 01:41:17;;;;;;;5.90;5.47;;;;;;;;;;5046030;28;20083;-44
2022/04/16 01:43:42;;;;;;;5.60;5.20;;;;;;;;;;5047311;28;20432;-45
2022/04/16 01:46:07;;;;;;;5.70;5.30;;;;;;;;;;5047128;28;20036;-45
2022/04/16 01:48:33;;;;;;;5.40;5.00;;;;;;;;;;5061494;28;20037;-45
2022/04/16 01:50:58;;;;;;;6.35;5.93;;;;;;;;;;5042127;28;20047;-46
2022/04/16 01:53:24;;;;;;;6.15;5.72;;;;;;;;;;5045098;28;20037;-47
2022/04/16 01:55:49;;;;;;;5.80;5.40;;;;;;;;;;5046587;28;20439;-46
2022/04/16 01:58:15;;;;;;;5.95;5.47;;;;;;;;;;5046601;28;20032;-46
2022/04/16 02:00:41;;;;;;;6.40;5.90;;;;;;;;;;5041645;28;20075;-46
2022/04/16 02:03:08;;;;;;;7.70;7.20;;;;;;;;;;5043552;28;20104;-46
2022/04/16 02:05:34;;;;;;;6.72;6.22;;;;;;;;;;5046005;28;20122;-46
2022/04/16 02:07:59;;;;;;;5.70;5.30;;;;;;;;;;5023626;28;20443;-46
2022/04/16 02:10:25;;;;;;;6.85;6.35;;;;;;;;;;5043357;28;20106;-46
2022/04/16 02:12:50;;;;;;;7.20;6.60;;;;;;;;;;5043787;28;20150;-46
2022/04/16 02:15:16;;;;;;;6.65;6.15;;;;;;;;;;5046253;28;20040;-45
2022/04/16 02:17:42;;;;;;;6.68;6.20;;;;;;;;;;5045675;28;20920;-46
2022/04/16 02:20:09;;;;;;;6.65;6.15;;;;;;;;;;5044928;28;20060;-46
2022/04/16 02:22:39;;;;;;;6.32;5.90;;;;;;;;;;5045917;28;20096;-47
2022/04/16 02:25:08;;;;;;;6.22;5.10;;;;;;;;;;5045811;28;20248;-45
2022/04/16 02:27:34;;;;;;;5.43;5.03;;;;;;;;;;5045034;28;20087;-46
2022/04/16 02:30:26;;;;;;;5.63;5.22;;;;;;;;;;5044679;28;20083;-45
2022/04/16 02:32:55;;;;;;;5.50;5.10;;;;;;;;;;5052825;28;20481;-47
2022/04/16 02:35:21;;;;;;;5.80;5.40;;;;;;;;;;5042005;28;20037;-47
2022/04/16 02:37:47;;;;;;;5.70;5.22;;;;;;;;;;5045854;28;20382;-46
2022/04/16 02:40:13;;;;;;;5.82;5.43;;;;;;;;;;5043587;28;20037;-46
2022/04/16 02:42:41;;;;;;;6.13;5.68;;;;;;;;;;5044686;28;20086;-45
2022/04/16 02:47:53;;;;;;;6.40;5.90;;;;;;;;;;5041760;28;20025;-45
2022/04/16 02:50:19;;;;;;;5.53;5.13;;;;;;;;;;5042835;28;20557;-45
2022/04/16 02:52:46;;;;;;;5.05;4.65;;;;;;;;;;5041570;28;20033;-44
2022/04/16 02:55:15;;;;;;;5.07;4.68;;;;;;;;;;5040292;28;20097;-44
2022/04/16 02:57:45;;;;;;;5.13;4.72;;;;;;;;;;5040948;28;20729;-46
2022/04/16 03:00:13;;;;;;;5.55;5.15;;;;;;;;;;5039406;28;20576;-44
2022/04/16 03:02:38;;;;;;;5.70;5.30;;;;;;;;;;5038982;28;20698;-45
2022/04/16 03:05:06;;;;;;;5.55;5.05;;;;;;;;;;5041713;28;20047;-44
2022/04/16 03:07:35;;;;;;;5.30;4.85;;;;;;;;;;5044138;28;20041;-44
2022/04/16 03:10:05;;;;;;;5.53;5.05;;;;;;;;;;5044648;28;20118;-46
2022/04/16 03:12:47;;;;;;;6.38;5.88;;;;;;;;;;5041403;28;20154;-45
2022/04/16 03:17:58;;;;;;;5.63;5.13;;;;;;;;;;5043745;28;20037;-45
2022/04/16 03:20:25;;;;;;;5.25;4.85;;;;;;;;;;5044725;28;20104;-44
2022/04/16 03:22:50;;;;;;;5.53;4.93;;;;;;;;;;5043413;28;20040;-45
2022/04/16 03:25:16;;;;;;;6.00;5.40;;;;;;;;;;5046286;28;20021;-44
2022/04/16 03:27:41;;;;;;;5.68;5.18;;;;;;;;;;5049322;28;20020;-45
2022/04/16 03:30:09;;;;;;;5.72;5.32;;;;;;;;;;5048649;28;20485;-45
2022/04/16 03:32:38;;;;;;;5.95;5.53;;;;;;;;;;5045912;28;20029;-52
2022/04/16 03:35:05;;;;;;;5.30;4.90;;;;;;;;;;5048712;28;20055;-44
2022/04/16 03:37:35;;;;;;;5.28;4.88;;;;;;;;;;5047793;28;20059;-44
2022/04/16 03:40:00;;;;;;;5.47;4.97;;;;;;;;;;5047481;28;20047;-44
2022/04/16 03:42:26;;;;;;;5.97;5.57;;;;;;;;;;5059631;28;20035;-45
2022/04/16 03:44:51;;;;;;;9.45;6.38;;;;;;;;;;5048300;28;20032;-44
2022/04/16 03:47:16;;;;;;;6.65;6.10;;;;;;;;;;5047014;28;21674;-44
2022/04/16 03:49:42;;;;;;;5.40;5.00;;;;;;;;;;5048895;28;20028;-52
2022/04/16 03:52:07;;;;;;;6.20;5.70;;;;;;;;;;5048146;28;20025;-54
2022/04/16 04:00:00;;;;;;;5.57;5.15;;;;;;;;;;5047568;28;20060;-54
2022/04/16 04:02:30;;;;;;;6.57;6.07;;;;;;;;;;5047955;28;20032;-55
2022/04/16 04:04:57;;;;;;;7.70;7.10;;;;;;;;;;5063150;28;20603;-55
2022/04/16 04:07:23;;;;;;;7.18;6.68;;;;;;;;;;5048321;28;20483;-54
2022/04/16 04:09:49;;;;;;;6.35;5.90;;;;;;;;;;5047997;28;20079;-52
2022/04/16 04:12:15;;;;;;;6.47;5.93;;;;;;;;;;5046650;28;20025;-54
2022/04/16 04:14:43;;;;;;;7.57;6.88;;;;;;;;;;5046894;28;20094;-54
2022/04/16 04:17:09;;;;;;;7.45;6.93;;;;;;;;;;5047236;28;20115;-54
2022/04/16 04:19:36;;;;;;;7.57;6.97;;;;;;;;;;5047821;28;20478;-55
2022/04/16 04:22:05;;;;;;;6.95;6.45;;;;;;;;;;5045996;28;20485;-55
2022/04/16 04:24:31;;;;;;;6.85;6.35;;;;;;;;;;5042771;28;20939;-56
2022/04/16 04:26:58;;;;;;;5.35;4.93;;;;;;;;;;5047310;28;20033;-55
2022/04/16 04:29:24;;;;;;;5.63;5.10;;;;;;;;;;5047156;28;20025;-54
2022/04/16 04:31:49;;;;;;;5.75;5.35;;;;;;;;;;5046166;28;20040;-56
2022/04/16 04:34:14;;;;;;;5.78;5.18;;;;;;;;;;5047794;28;20024;-57
2022/04/16 04:36:40;;;;;;;5.63;5.13;;;;;;;;;;5048817;28;20056;-56
2022/04/16 04:39:05;;;;;;;6.40;5.90;;;;;;;;;;5048898;28;20032;-55
2022/04/16 04:41:31;;;;;;;4.53;4.13;;;;;;;;;;5044917;28;20082;-56
2022/04/16 04:43:56;;;;;;;5.97;5.47;;;;;;;;;;5038383;28;20033;-54
2022/04/16 04:46:22;;;;;;;5.35;4.88;;;;;;;;;;5038727;28;20044;-55
2022/04/16 04:48:47;;;;;;;5.90;5.38;;;;;;;;;;5042120;28;20464;-56
2022/04/16 04:51:12;;;;;;;6.30;5.80;;;;;;;;;;5036708;28;20034;-55
2022/04/16 04:53:38;;;;;;;6.20;5.72;;;;;;;;;;5040097;28;20043;-55
2022/04/16 04:56:04;;;;;;;6.53;6.03;;;;;;;;;;5039039;28;20076;-53
2022/04/16 04:58:31;;;;;;;6.13;5.63;;;;;;;;;;5053416;28;20483;-56
2022/04/16 05:00:57;;;;;;;6.75;6.25;;;;;;;;;;5042080;28;20552;-56
2022/04/16 05:03:22;;;;;;;7.28;6.55;;;;;;;;;;5044249;28;20120;-56
2022/04/16 05:05:48;;;;;;;6.72;6.22;;;;;;;;;;5044789;28;20128;-55
2022/04/16 05:08:13;;;;;;;6.80;6.30;;;;;;;;;;5047993;28;20477;-56
2022/04/16 05:10:39;;;;;;;6.57;6.07;;;;;;;;;;5046772;28;20061;-56
2022/04/16 05:13:04;;;;;;;6.50;6.03;;;;;;;;;;5050688;28;20366;-54
2022/04/16 05:15:29;;;;;;;7.10;6.60;;;;;;;;;;5037861;28;20724;-55
2022/04/16 05:17:55;;;;;;;6.30;5.80;;;;;;;;;;5043470;28;20028;-55
2022/04/16 05:20:20;;;;;;;6.30;5.70;;;;;;;;;;5043779;28;20087;-55
2022/04/16 05:22:46;;;;;;;6.93;5.75;;;;;;;;;;5042130;28;20421;-55
2022/04/16 05:25:12;;;;;;;6.30;5.78;;;;;;;;;;5042980;28;20118;-54
2022/04/16 05:27:37;;;;;;;6.15;5.65;;;;;;;;;;5047172;28;20036;-55
2022/04/16 05:30:07;;;;;;;7.00;6.40;;;;;;;;;;5047271;28;20075;-53
2022/04/16 05:32:36;;;;;;;5.95;5.55;;;;;;;;;;5046531;28;20107;-54
2022/04/16 05:35:03;;;;;;;5.50;5.00;;;;;;;;;;5046691;28;20029;-58
2022/04/16 05:37:28;;;;;;;6.90;5.95;;;;;;;;;;5042676;28;20040;-55
2022/04/16 05:39:54;;;;;;;5.90;5.32;;;;;;;;;;5043030;28;20474;-55
2022/04/16 05:42:19;;;;;;;5.90;5.45;;;;;;;;;;5042256;28;20039;-55
2022/04/16 05:44:44;;;;;;;7.13;6.63;;;;;;;;;;5044264;28;20452;-55
2022/04/16 05:47:10;;;;;;;7.88;7.38;;;;;;;;;;5040860;28;20525;-55
2022/04/16 05:49:35;;;;;;;7.13;6.57;;;;;;;;;;5042726;28;20052;-55
2022/04/16 05:52:01;;;;;;;7.20;6.70;;;;;;;;;;5043004;28;20451;-54
2022/04/16 05:54:26;;;;;;;6.97;6.47;;;;;;;;;;5058368;28;20102;-52
2022/04/16 05:56:52;;;;;;;7.70;7.13;;;;;;;;;;5043468;28;20044;-55
2022/04/16 05:59:18;;;;;;;8.73;8.07;;;;;;;;;;5042352;28;20071;-54
2022/04/16 06:01:44;;;;;;;8.75;8.13;;;;;;;;;;5041968;28;20340;-54
2022/04/16 06:04:09;;;;;;;9.15;8.55;;;;;;;;;;5040687;28;20045;-54
2022/04/16 06:06:34;;;;;;;9.90;9.20;;;;;;;;;;5041664;28;20028;-53
2022/04/16 06:09:00;;;;;;;10.85;10.15;;;;;;;;;;5042058;28;20042;-53
2022/04/16 06:11:28;;;;;;;9.75;9.05;;;;;;;;;;5041514;28;20037;-55
2022/04/16 06:13:53;;;;;;;9.20;8.50;;;;;;;;;;5041088;28;20106;-55
2022/04/16 06:16:19;;;;;;;9.50;8.90;;;;;;;;;;5040478;28;20032;-53
2022/04/16 06:18:44;;;;;;;10.00;9.30;;;;;;;;;;5038082;28;20069;-53
2022/04/16 06:21:09;;;;;;;10.90;10.20;;;;;;;;;;5041909;28;20437;-55
2022/04/16 06:23:34;;;;;;;10.52;9.82;;;;;;;;;;5045597;28;20086;-54
2022/04/16 06:26:00;;;;;;;13.00;12.20;;;;;;;;;;5045575;28;20473;-54
2022/04/16 06:28:25;;;;;;;10.40;9.73;;;;;;;;;;5044906;28;20238;-54
2022/04/16 06:30:51;;;;;;;12.65;11.65;;;;;;;;;;5061584;28;20048;-53
2022/04/16 06:33:16;;;;;;;9.65;9.05;;;;;;;;;;5045335;28;20029;-54
2022/04/16 06:35:42;;;;;;;8.00;7.50;;;;;;;;;;5043103;28;20037;-54
2022/04/16 06:38:07;;;;;;;13.50;12.70;;;;;;;;;;5041244;28;20132;-55
2022/04/16 06:40:33;;;;;;;12.05;11.30;;;;;;;;;;5040078;28;20461;-52
2022/04/16 06:42:58;;;;;;;12.10;11.05;;;;;;;;;;5042367;28;20104;-55
2022/04/16 06:45:23;;;;;;;13.50;12.63;;;;;;;;;;5041679;28;20052;-55
2022/04/16 06:47:49;;;;;;;11.50;10.80;;;;;;;;;;5041002;28;20037;-53
2022/04/16 06:50:14;;;;;;;11.52;10.82;;;;;;;;;;5040310;28;20094;-55
2022/04/16 06:52:40;;;;;;;8.85;8.25;;;;;;;;;;5041626;28;20037;-55
2022/04/16 06:55:06;;;;;;;10.90;10.07;;;;;;;;;;5042934;28;20471;-53
2022/04/16 06:57:32;;;;;;;13.93;12.85;;;;;;;;;;5045312;28;20731;-52
2022/04/16 06:59:57;;;;;;;10.85;10.15;;;;;;;;;;5044099;28;20083;-54
2022/04/16 07:02:22;;;;;;;9.95;9.30;;;;;;;;;;5045060;28;20125;-54
2022/04/16 07:04:48;;;;;;;11.73;10.93;;;;;;;;;;5045052;28;20032;-55
2022/04/16 07:07:13;;;;;;;7.60;7.00;;;;;;;;;;5034532;28;20098;-55
2022/04/16 07:09:39;;;;;;;7.93;7.32;;;;;;;;;;5041661;28;20063;-54
2022/04/16 07:12:07;;;;;;;7.13;6.63;;;;;;;;;;5044115;28;20079;-54
2022/04/16 07:14:33;;;;;;;7.18;6.57;;;;;;;;;;5044373;28;20068;-54
2022/04/16 07:16:59;;;;;;;10.38;9.68;;;;;;;;;;5041760;28;20112;-55
2022/04/16 07:19:24;;;;;;;7.57;6.97;;;;;;;;;;5041072;28;20522;-55
2022/04/16 07:21:49;;;;;;;8.45;7.85;;;;;;;;;;5044028;28;20029;-55
2022/04/16 07:24:14;;;;;;;6.88;6.38;;;;;;;;;;5045282;28;20401;-55
2022/04/16 07:26:40;;;;;;;6.43;5.93;;;;;;;;;;5043385;28;20512;-55
2022/04/16 07:29:05;;;;;;;6.18;5.75;;;;;;;;;;5045205;28;20560;-55
2022/04/16 07:31:31;;;;;;;6.15;5.65;;;;;;;;;;5045918;28;20037;-56
2022/04/16 07:33:56;;;;;;;6.47;5.97;;;;;;;;;;5045658;28;20037;-56
2022/04/16 07:36:21;;;;;;;6.53;6.03;;;;;;;;;;5041805;28;20040;-52
2022/04/16 07:38:47;;;;;;;5.93;5.53;;;;;;;;;;5043016;28;20033;-54
2022/04/16 07:41:12;;;;;;;6.05;5.65;;;;;;;;;;5042377;28;20083;-56
2022/04/16 07:43:38;;;;;;;6.82;6.30;;;;;;;;;;5039274;28;20037;-57
2022/04/16 07:46:03;;;;;;;6.80;6.30;;;;;;;;;;5041814;28;20142;-56
2022/04/16 07:48:28;;;;;;;7.32;6.78;;;;;;;;;;5032810;28;20060;-56
2022/04/16 07:50:54;;;;;;;6.03;5.53;;;;;;;;;;5039415;28;20063;-55
2022/04/16 07:53:20;;;;;;;5.35;4.95;;;;;;;;;;5039269;28;20037;-55
2022/04/16 07:55:46;;;;;;;5.72;5.32;;;;;;;;;;5040281;28;20438;-55
2022/04/16 07:58:13;;;;;;;6.47;5.97;;;;;;;;;;5039939;28;20029;-49
2022/04/16 08:00:38;;;;;;;5.70;5.30;;;;;;;;;;5039917;28;20024;-47
2022/04/16 08:03:04;;;;;;;5.72;5.32;;;;;;;;;;5042795;28;20032;-45
2022/04/16 08:05:29;;;;;;;7.22;6.63;;;;;;;;;;5042315;28;20047;-45
2022/04/16 08:07:55;;;;;;;6.03;5.53;;;;;;;;;;5043254;28;20040;-56
2022/04/16 08:10:20;;;;;;;6.75;6.25;;;;;;;;;;5040067;28;20052;-55
2022/04/16 08:12:45;;;;;;;8.45;7.85;;;;;;;;;;5045053;28;20047;-48
2022/04/16 08:15:11;;;;;;;8.68;8.10;;;;;;;;;;5047407;28;20052;-47
2022/04/16 08:17:37;;;;;;;9.68;9.07;;;;;;;;;;5040712;28;20565;-56
2022/04/16 08:20:05;;;;;;;9.80;9.20;;;;;;;;;;5040443;28;20513;-56
2022/04/16 08:22:34;;;;;;;7.00;6.50;;;;;;;;;;5044840;28;20135;-53
2022/04/16 08:25:43;;;;;;;8.02;7.53;;;;;;;;;;5041509;28;20041;-54
2022/04/16 08:27:47;;;;;;;8.55;7.95;;;;;;;;;;5042448;28;20029;-55
2022/04/16 08:30:13;;;;;;;7.85;7.25;;;;;;;;;;5024386;28;20132;-56
2022/04/16 08:32:42;;;;;;;7.35;6.85;;;;;;;;;;5039188;28;20090;-56
2022/04/16 08:35:15;;;;;;;7.70;7.20;;;;;;;;;;5043778;28;20037;-54
2022/04/16 08:37:41;;;;;;;6.40;5.90;;;;;;;;;;5040467;28;20116;-54
2022/04/16 08:40:08;;;;;;;7.65;7.05;;;;;;;;;;5037580;28;20045;-54
2022/04/16 08:42:34;;;;;;;7.40;6.90;;;;;;;;;;5039902;28;20127;-55
2022/04/16 08:45:05;;;;;;;8.32;7.72;;;;;;;;;;5038376;28;20659;-55
2022/04/16 08:47:31;;;;;;;8.27;7.75;;;;;;;;;;5036570;28;20063;-54
2022/04/16 08:49:58;;;;;;;9.30;8.52;;;;;;;;;;5048002;28;20468;-52
2022/04/16 08:52:24;;;;;;;6.10;5.70;;;;;;;;;;5047127;28;20041;-53
2022/04/16 08:54:50;;;;;;;7.93;7.43;;;;;;;;;;5050430;28;20056;-55
2022/04/16 08:57:15;;;;;;;7.03;6.53;;;;;;;;;;5047472;28;20037;-54
2022/04/16 08:59:50;;;;;;;7.93;7.43;;;;;;;;;;5042663;28;20147;-55
2022/04/16 09:02:16;;;;;;;7.57;7.07;;;;;;;;;;5044468;28;20036;-54
2022/04/16 09:04:41;;;;;;;9.30;8.70;;;;;;;;;;5045625;28;20033;-54
2022/04/16 09:07:06;;;;;;;9.00;8.30;;;;;;;;;;5047944;28;20025;-47
2022/04/16 09:09:32;;;;;;;9.15;8.45;;;;;;;;;;5043868;28;20045;-52
2022/04/16 09:11:57;;;;;;;10.18;9.48;;;;;;;;;;5047238;28;20072;-53
2022/04/16 09:14:33;;;;;;;8.52;7.93;;;;;;;;;;5047338;28;20025;-55
2022/04/16 09:16:59;;;;;;;8.13;7.63;;;;;;;;;;5047562;28;20077;-56
2022/04/16 09:19:28;;;;;;;7.20;6.70;;;;;;;;;;5043919;28;20040;-51
2022/04/16 09:21:54;;;;;;;7.85;7.35;;;;;;;;;;5042987;28;20863;-51
2022/04/16 09:24:19;;;;;;;8.95;8.35;;;;;;;;;;5043799;28;20032;-52
2022/04/16 09:26:49;;;;;;;7.38;6.88;;;;;;;;;;5043094;28;20486;-53
2022/04/16 09:29:16;;;;;;;9.88;9.27;;;;;;;;;;5046714;28;20059;-52
2022/04/16 09:31:45;;;;;;;6.22;5.82;;;;;;;;;;5046622;28;20021;-51
2022/04/16 09:34:19;;;;;;;5.70;5.30;;;;;;;;;;5048006;28;20374;-54
2022/04/16 09:36:44;;;;;;;5.35;4.95;;;;;;;;;;5046746;28;20182;-52
2022/04/16 09:39:11;;;;;;;6.68;6.18;;;;;;;;;;5047132;28;20494;-54
2022/04/16 09:41:38;;;;;;;6.22;5.80;;;;;;;;;;5046547;28;20166;-54
2022/04/16 09:44:15;;;;;;;6.82;6.32;;;;;;;;;;5045983;28;20378;-53
2022/04/16 09:46:44;;;;;;;8.05;7.45;;;;;;;;;;5044935;28;20377;-54
2022/04/16 09:49:09;;;;;;;7.75;7.25;;;;;;;;;;5038628;28;20493;-53
2022/04/16 09:51:35;;;;;;;8.85;8.25;;;;;;;;;;5046295;28;20037;-51
2022/04/16 09:54:06;;;;;;;10.27;9.65;;;;;;;;;;5046213;28;20037;-53
2022/04/16 09:56:51;;;;;;;11.23;10.48;;;;;;;;;;5045902;28;20092;-54
2022/04/16 09:59:17;;;;;;;9.05;8.45;;;;;;;;;;5045939;28;20024;-52
2022/04/16 10:01:47;;;;;;;10.23;9.52;;;;;;;;;;5045608;28;20021;-52
2022/04/16 10:04:19;;;;;;;9.55;8.95;;;;;;;;;;5044524;28;20411;-55
2022/04/16 10:06:46;;;;;;;9.95;9.35;;;;;;;;;;5046200;28;20462;-55
2022/04/16 10:09:14;;;;;;;9.68;9.07;;;;;;;;;;5046486;28;20439;-55
2022/04/16 10:12:59;;;;;;;11.50;10.80;;;;;;;;;;5046212;28;20737;-55
2022/04/16 10:14:39;;;;;;;10.43;9.82;;;;;;;;;;5044212;28;20128;-53
2022/04/16 10:17:19;;;;;;;9.30;8.70;;;;;;;;;;5045378;28;20040;-55
2022/04/16 10:19:46;;;;;;;10.07;9.18;;;;;;;;;;5044029;28;20549;-56
2022/04/16 10:22:25;;;;;;;9.30;8.70;;;;;;;;;;5046308;28;20112;-55
2022/04/16 10:24:53;;;;;;;12.00;11.30;;;;;;;;;;5045215;28;20029;-56
2022/04/16 10:27:24;;;;;;;14.35;13.50;;;;;;;;;;5044627;28;20038;-54
2022/04/16 10:29:50;;;;;;;10.15;9.55;;;;;;;;;;5043759;28;20040;-56
2022/04/16 10:32:17;;;;;;;22.52;21.33;;;;;;;;;;5045075;28;20021;-53
2022/04/16 10:34:43;;;;;;;20.23;19.13;;;;;;;;;;5045824;28;20029;-54
2022/04/16 10:37:20;;;;;;;21.00;19.85;;;;;;;;;;5046387;28;20084;-56
2022/04/16 10:39:47;;;;;;;28.60;27.05;;;;;;;;;;5045985;28;20028;-56
2022/04/16 10:42:13;;;;;;;27.15;25.70;;;;;;;;;;5045518;28;20064;-55
2022/04/16 10:44:48;;;;;;;29.13;27.63;;;;;;;;;;5040781;28;20068;-55
2022/04/16 10:47:20;;;;;;;22.52;21.33;;;;;;;;;;5042961;28;20058;-56
2022/04/16 10:49:45;;;;;;;16.02;15.13;;;;;;;;;;5044672;28;20028;-53
2022/04/16 10:52:29;;;;;;;31.33;29.50;;;;;;;;;;5043154;28;20083;-56
2022/04/16 10:55:04;;;;;;;41.92;39.80;;;;;;;;;;5045380;28;20416;-56
2022/04/16 10:57:29;;;;;;;44.08;41.83;;;;;;;;;;5046412;28;20017;-56
2022/04/16 10:59:57;;;;;;;29.98;28.40;;;;;;;;;;5041347;28;20559;-55
2022/04/16 11:02:25;;;;;;;44.20;42.00;;;;;;;;;;5038606;28;20076;-55
2022/04/16 11:05:08;;;;;;;46.88;44.47;;;;;;;;;;5042180;28;20041;-56
2022/04/16 11:07:35;;;;;;;20.27;19.17;;;;;;;;;;5038490;28;20494;-56
2022/04/16 11:10:04;;;;;;;19.77;18.58;;;;;;;;;;5041944;28;20045;-55
2022/04/16 11:12:29;;;;;;;21.83;20.63;;;;;;;;;;5035657;28;20041;-56
2022/04/16 11:14:55;;;;;;;22.75;21.45;;;;;;;;;;5037843;28;20162;-55
2022/04/16 11:17:21;;;;;;;23.98;22.67;;;;;;;;;;5059094;28;20091;-55
2022/04/16 11:20:07;;;;;;;20.42;19.33;;;;;;;;;;5045831;28;20108;-55
2022/04/16 11:22:33;;;;;;;23.63;22.33;;;;;;;;;;5040068;28;20051;-53
2022/04/16 11:24:59;;;;;;;24.02;22.70;;;;;;;;;;5043118;28;20033;-52
2022/04/16 11:35:59;;;;;;;34.63;32.83;;;;;;;;;;5045305;28;20102;-55
2022/04/16 11:38:29;;;;;;;33.30;31.60;;;;;;;;;;5042016;28;20327;-55
2022/04/16 11:40:57;;;;;;;43.65;41.45;;;;;;;;;;5039936;28;20025;-55
2022/04/16 11:43:25;;;;;;;39.42;37.42;;;;;;;;;;5040330;28;20112;-56
2022/04/16 11:45:51;;;;;;;36.72;34.83;;;;;;;;;;5040855;28;20053;-55
2022/04/16 11:48:16;;;;;;;14.10;13.30;;;;;;;;;;5043127;28;20067;-55
2022/04/16 11:50:43;;;;;;;14.48;13.68;;;;;;;;;;5044600;28;20132;-55
2022/04/16 11:53:12;;;;;;;15.43;14.52;;;;;;;;;;5044301;28;20051;-55
2022/04/16 11:55:48;;;;;;;20.23;19.13;;;;;;;;;;5044737;28;20427;-53
2022/04/16 11:58:14;;;;;;;18.42;17.40;;;;;;;;;;5043243;28;20021;-55
2022/04/16 12:00:50;;;;;;;14.40;13.57;;;;;;;;;;5043561;28;20461;-54
2022/04/16 12:03:16;;;;;;;17.90;16.90;;;;;;;;;;5041341;28;20591;-56
2022/04/16 12:05:44;;;;;;;19.40;18.30;;;;;;;;;;5045987;28;20041;-56
2022/04/16 12:08:11;;;;;;;10.38;9.73;;;;;;;;;;5046678;28;20043;-56
2022/04/16 12:10:37;;;;;;;22.67;21.42;;;;;;;;;;5045301;28;20033;-56
2022/04/16 12:13:10;;;;;;;13.55;12.75;;;;;;;;;;5043747;28;20091;-55
2022/04/16 12:15:43;;;;;;;8.60;8.10;;;;;;;;;;5047350;28;20128;-55
2022/04/16 12:18:10;;;;;;;10.50;9.88;;;;;;;;;;5047545;28;20037;-55
2022/04/16 12:20:43;;;;;;;13.77;12.98;;;;;;;;;;5041132;28;20037;-55
2022/04/16 12:23:14;;;;;;;13.75;12.95;;;;;;;;;;5045842;28;20051;-56
2022/04/16 12:25:41;;;;;;;11.82;11.13;;;;;;;;;;5053723;28;20030;-53
2022/04/16 12:28:11;;;;;;;12.10;11.40;;;;;;;;;;5041848;28;20036;-55
2022/04/16 12:30:37;;;;;;;25.90;24.50;;;;;;;;;;5043215;28;20044;-52
2022/04/16 12:33:05;;;;;;;24.38;23.08;;;;;;;;;;5047171;28;20377;-54
2022/04/16 12:35:36;;;;;;;26.13;24.73;;;;;;;;;;5046816;28;20043;-52
2022/04/16 12:38:03;;;;;;;24.48;23.17;;;;;;;;;;5046282;28;20056;-54
2022/04/16 12:40:30;;;;;;;26.35;24.92;;;;;;;;;;5044455;28;20194;-50
2022/04/16 12:42:57;;;;;;;24.10;22.77;;;;;;;;;;5047197;28;20029;-54
2022/04/16 12:45:23;;;;;;;28.67;27.17;;;;;;;;;;5047308;28;20029;-53
2022/04/16 12:47:49;;;;;;;31.15;29.55;;;;;;;;;;5047201;28;20640;-54
2022/04/16 12:50:15;;;;;;;31.63;30.00;;;;;;;;;;5046310;28;20029;-54
2022/04/16 12:52:41;;;;;;;27.65;26.20;;;;;;;;;;5047471;28;20033;-55
2022/04/16 12:55:07;;;;;;;19.92;18.83;;;;;;;;;;5047480;28;20607;-54
2022/04/16 12:57:33;;;;;;;18.02;16.92;;;;;;;;;;5046050;28;20047;-52
2022/04/16 12:59:58;;;;;;;17.65;16.63;;;;;;;;;;5047503;28;20029;-53
2022/04/16 13:02:24;;;;;;;17.10;16.13;;;;;;;;;;5046572;28;20090;-54
2022/04/16 13:04:51;;;;;;;11.80;11.10;;;;;;;;;;5045908;28;20025;-54
2022/04/16 13:07:16;;;;;;;13.57;12.77;;;;;;;;;;5046346;28;20486;-55
2022/04/16 13:09:41;;;;;;;11.68;10.98;;;;;;;;;;5047051;28;20040;-55
2022/04/16 13:12:07;;;;;;;12.45;11.75;;;;;;;;;;5046563;28;20039;-56
2022/04/16 13:14:32;;;;;;;12.50;11.77;;;;;;;;;;5046796;28;20037;-55
2022/04/16 13:16:58;;;;;;;15.38;14.48;;;;;;;;;;5046775;28;20055;-53
2022/04/16 13:19:24;;;;;;;14.07;13.27;;;;;;;;;;5046200;28;20498;-55
2022/04/16 13:21:52;;;;;;;14.75;13.95;;;;;;;;;;5047005;28;20033;-54
2022/04/16 13:24:18;;;;;;;13.90;13.05;;;;;;;;;;5046795;28;20059;-54
2022/04/16 13:26:44;;;;;;;13.43;12.63;;;;;;;;;;5046609;28;20047;-55
2022/04/16 13:29:10;;;;;;;18.83;17.83;;;;;;;;;;5046949;28;20056;-56
2022/04/16 13:31:35;;;;;;;12.98;12.18;;;;;;;;;;5047039;28;20061;-55
2022/04/16 13:34:02;;;;;;;14.88;14.07;;;;;;;;;;5045371;28;20060;-55
2022/04/16 13:36:28;;;;;;;13.23;12.43;;;;;;;;;;5046412;28;20025;-54
2022/04/16 13:38:54;;;;;;;14.15;13.35;;;;;;;;;;5045671;28;20031;-55
2022/04/16 13:44:04;;;;;;;17.50;16.52;;;;;;;;;;5046446;28;20146;-56
2022/04/16 13:46:29;;;;;;;16.10;15.20;;;;;;;;;;5046778;28;20557;-55
2022/04/16 13:48:55;;;;;;;13.82;13.02;;;;;;;;;;5046623;28;20173;-55
2022/04/16 13:51:21;;;;;;;19.65;18.58;;;;;;;;;;5045654;28;20952;-53
2022/04/16 13:53:46;;;;;;;18.67;17.67;;;;;;;;;;5047447;28;20111;-56
2022/04/16 13:56:12;;;;;;;15.40;14.50;;;;;;;;;;5046847;28;20025;-54
2022/04/16 13:58:37;;;;;;;14.85;14.05;;;;;;;;;;5045444;28;20649;-54
2022/04/16 14:01:02;;;;;;;17.98;16.98;;;;;;;;;;5046872;28;20040;-55
2022/04/16 14:03:28;;;;;;;15.38;14.50;;;;;;;;;;5046117;28;20035;-56
2022/04/16 14:05:53;;;;;;;14.15;13.35;;;;;;;;;;5044536;28;20037;-55
2022/04/16 14:08:18;;;;;;;16.20;15.30;;;;;;;;;;5044841;28;20119;-55
2022/04/16 14:10:44;;;;;;;16.63;15.65;;;;;;;;;;5045965;28;20504;-55
2022/04/16 14:13:11;;;;;;;11.55;10.85;;;;;;;;;;5045049;28;20152;-56
2022/04/16 14:15:37;;;;;;;17.17;16.08;;;;;;;;;;5042342;28;20021;-52
2022/04/16 14:18:03;;;;;;;11.27;10.57;;;;;;;;;;5041808;28;20127;-55
2022/04/16 14:20:29;;;;;;;11.52;10.82;;;;;;;;;;5041051;28;20147;-53
2022/04/16 14:22:55;;;;;;;15.35;14.45;;;;;;;;;;5038773;28;20457;-56
2022/04/16 14:25:21;;;;;;;12.95;12.20;;;;;;;;;;5042597;28;20036;-55
2022/04/16 14:27:47;;;;;;;13.45;12.65;;;;;;;;;;5040696;28;20614;-55
2022/04/16 14:30:13;;;;;;;14.90;14.00;;;;;;;;;;5041585;28;20124;-55
2022/04/16 14:32:38;;;;;;;14.23;12.75;;;;;;;;;;5041858;28;20413;-52
2022/04/16 14:35:04;;;;;;;13.50;12.65;;;;;;;;;;5043641;28;20481;-53
2022/04/16 14:37:30;;;;;;;15.93;14.73;;;;;;;;;;5040871;28;20029;-55
2022/04/16 14:39:55;;;;;;;15.40;14.52;;;;;;;;;;5041988;28;20037;-55
2022/04/16 14:42:21;;;;;;;18.65;17.45;;;;;;;;;;5041255;28;20096;-55
2022/04/16 14:44:52;;;;;;;16.45;15.55;;;;;;;;;;5044926;28;20025;-57
2022/04/16 14:47:18;;;;;;;13.60;12.80;;;;;;;;;;5043375;28;20037;-47
2022/04/16 14:49:44;;;;;;;14.30;13.48;;;;;;;;;;5043530;28;20126;-47
2022/04/16 14:52:11;;;;;;;16.50;15.40;;;;;;;;;;5045712;28;20324;-47
2022/04/16 14:54:36;;;;;;;13.80;13.00;;;;;;;;;;5043417;28;20033;-46